createdAt,value
2018-08-20T00:01:33.052Z,62.74
2018-08-20T00:04:04.819Z,64.09
2018-08-20T00:06:45.730Z,63.62
2018-08-20T00:09:14.492Z,63.54
2018-08-20T00:11:43.315Z,64.15
2018-08-20T00:14:12.210Z,64.74
2018-08-20T00:16:41.020Z,64.89
2018-08-20T00:19:13.497Z,64.79
2018-08-20T00:21:43.540Z,65.88
2018-08-20T00:24:12.371Z,67.30
2018-08-20T00:26:41.132Z,67.27
2018-08-20T00:29:09.899Z,68.35
2018-08-20T00:31:38.666Z,68.41
2018-08-20T00:34:07.439Z,67.85
2018-08-20T00:36:36.452Z,67.45
2018-08-20T00:39:07.516Z,67.20
2018-08-20T00:41:36.535Z,67.57
2018-08-20T00:44:09.675Z,68.66
2018-08-20T00:46:38.449Z,69.04
2018-08-20T00:49:07.217Z,69.86
2018-08-20T00:51:36.016Z,69.41
2018-08-20T00:54:04.837Z,69.06
2018-08-20T00:56:33.624Z,69.75
2018-08-20T00:59:03.232Z,69.23
2018-08-20T01:01:32.301Z,68.33
2018-08-20T01:04:01.916Z,68.44
2018-08-20T01:06:30.900Z,67.00
2018-08-20T01:08:59.680Z,67.34
2018-08-20T01:11:28.424Z,68.03
2018-08-20T01:13:57.165Z,67.60
2018-08-20T01:16:26.221Z,68.37
2018-08-20T01:18:54.996Z,67.43
2018-08-20T01:21:23.740Z,67.05
2018-08-20T01:23:52.480Z,66.59
2018-08-20T01:26:21.251Z,67.24
2018-08-20T01:28:50.012Z,66.35
2018-08-20T01:31:18.828Z,66.33
2018-08-20T01:33:47.593Z,67.16
2018-08-20T01:36:16.995Z,68.37
2018-08-20T01:38:45.732Z,69.01
2018-08-20T01:41:14.521Z,67.51
2018-08-20T01:43:43.308Z,69.16
2018-08-20T01:46:12.078Z,70.12
2018-08-20T01:48:40.824Z,68.39
2018-08-20T01:51:09.583Z,69.22
2018-08-20T01:53:38.364Z,69.41
2018-08-20T01:56:07.101Z,69.97
2018-08-20T01:58:35.884Z,69.21
2018-08-20T02:01:04.680Z,69.21
2018-08-20T02:03:33.492Z,69.22
2018-08-20T02:06:02.292Z,70.17
2018-08-20T02:08:31.097Z,70.19
2018-08-20T02:10:59.872Z,70.63
2018-08-20T02:13:28.628Z,70.91
2018-08-20T02:15:57.429Z,70.54
2018-08-20T02:18:26.205Z,70.08
2018-08-20T02:20:55.028Z,70.08
2018-08-20T02:23:23.922Z,71.63
2018-08-20T02:25:52.680Z,71.31
2018-08-20T02:28:21.680Z,70.60
2018-08-20T02:30:50.420Z,69.92
2018-08-20T02:33:19.282Z,71.42
2018-08-20T02:35:48.404Z,71.03
2018-08-20T02:38:17.222Z,71.05
2018-08-20T02:40:46.040Z,72.14
2018-08-20T02:43:14.772Z,72.53
2018-08-20T02:45:43.572Z,72.53
2018-08-20T02:48:12.346Z,72.59
2018-08-20T02:50:41.217Z,73.17
2018-08-20T02:53:09.976Z,71.73
2018-08-20T02:55:40.016Z,72.84
2018-08-20T02:58:08.836Z,72.44
2018-08-20T03:00:37.584Z,72.27
2018-08-20T03:03:06.426Z,72.48
2018-08-20T03:05:35.260Z,72.92
2018-08-20T03:08:04.130Z,73.74
2018-08-20T03:10:32.894Z,74.00
2018-08-20T03:13:01.660Z,72.96
2018-08-20T03:15:30.436Z,74.46
2018-08-20T03:17:59.215Z,74.48
2018-08-20T03:20:28.027Z,74.21
2018-08-20T03:22:56.815Z,74.70
2018-08-20T03:25:25.677Z,75.34
2018-08-20T03:27:54.464Z,75.09
2018-08-20T03:30:23.277Z,74.83
2018-08-20T03:32:52.016Z,74.79
2018-08-20T03:35:20.824Z,75.07
2018-08-20T03:37:49.584Z,75.59
2018-08-20T03:40:18.353Z,75.91
2018-08-20T03:42:47.121Z,75.86
2018-08-20T03:45:15.904Z,75.84
2018-08-20T03:47:44.876Z,75.90
2018-08-20T03:50:15.636Z,75.83
2018-08-20T03:52:44.434Z,75.80
2018-08-20T03:55:13.224Z,75.88
2018-08-20T03:57:41.960Z,76.15
2018-08-20T04:00:11.839Z,76.13
2018-08-20T04:02:40.660Z,76.31
2018-08-20T04:05:09.456Z,76.89
2018-08-20T04:07:38.179Z,76.45
2018-08-20T04:10:06.946Z,76.23
2018-08-20T04:12:35.696Z,76.66
2018-08-20T04:15:04.516Z,76.80
2018-08-20T04:17:33.251Z,77.07
2018-08-20T04:20:01.999Z,76.52
2018-08-20T04:22:30.743Z,77.25
2018-08-20T04:24:59.520Z,77.54
2018-08-20T04:27:28.259Z,78.29
2018-08-20T04:29:57.021Z,78.29
2018-08-20T04:32:25.794Z,78.63
2018-08-20T04:34:54.552Z,78.19
2018-08-20T04:37:23.553Z,78.10
2018-08-20T04:39:52.312Z,78.38
2018-08-20T04:42:21.113Z,78.49
2018-08-20T04:44:49.900Z,77.94
2018-08-20T04:47:20.053Z,78.13
2018-08-20T04:49:48.871Z,78.50
2018-08-20T04:52:18.284Z,78.56
2018-08-20T04:54:47.036Z,78.61
2018-08-20T04:57:15.877Z,78.15
2018-08-20T04:59:44.883Z,78.09
2018-08-20T05:02:13.710Z,78.30
2018-08-20T05:04:42.734Z,78.59
2018-08-20T05:07:11.600Z,78.27
2018-08-20T05:09:40.358Z,77.79
2018-08-20T05:12:11.007Z,78.64
2018-08-20T05:14:41.692Z,78.18
2018-08-20T05:17:11.646Z,77.09
2018-08-20T05:19:42.417Z,76.69
2018-08-20T05:22:11.376Z,77.04
2018-08-20T05:24:40.180Z,77.59
2018-08-20T05:27:09.572Z,76.83
2018-08-20T05:29:38.471Z,76.82
2018-08-20T05:32:07.308Z,75.83
2018-08-20T05:34:36.209Z,75.61
2018-08-20T05:37:05.291Z,76.05
2018-08-20T05:39:34.044Z,75.12
2018-08-20T05:42:02.880Z,75.02
2018-08-20T05:44:31.665Z,74.73
2018-08-20T05:47:00.446Z,74.33
2018-08-20T05:49:29.278Z,74.35
2018-08-20T05:51:58.132Z,74.52
2018-08-20T05:54:26.872Z,73.63
2018-08-20T05:56:55.648Z,74.26
2018-08-20T05:59:24.480Z,73.85
2018-08-20T06:01:53.260Z,72.98
2018-08-20T06:04:22.068Z,72.62
2018-08-20T06:06:50.844Z,72.16
2018-08-20T06:09:19.696Z,72.54
2018-08-20T06:11:48.529Z,72.60
2018-08-20T06:14:17.342Z,71.64
2018-08-20T06:16:46.228Z,70.66
2018-08-20T06:19:15.044Z,70.55
2018-08-20T06:21:43.812Z,70.35
2018-08-20T06:24:12.629Z,70.06
2018-08-20T06:26:41.414Z,70.67
2018-08-20T06:29:10.192Z,69.74
2018-08-20T06:31:38.958Z,69.49
2018-08-20T06:34:07.841Z,69.96
2018-08-20T06:36:36.668Z,70.02
2018-08-20T06:39:07.600Z,70.33
2018-08-20T06:41:36.416Z,70.09
2018-08-20T06:44:05.580Z,67.23
2018-08-20T06:46:34.392Z,66.68
2018-08-20T06:49:03.195Z,65.24
2018-08-20T06:51:31.944Z,64.69
2018-08-20T06:54:00.693Z,63.30
2018-08-20T06:56:29.453Z,60.19
2018-08-20T06:58:58.301Z,54.97
2018-08-20T07:01:27.092Z,55.59
2018-08-20T07:03:55.880Z,49.87
2018-08-20T07:06:24.711Z,51.20
2018-08-20T07:08:53.439Z,52.19
2018-08-20T07:11:22.205Z,50.71
2018-08-20T07:13:51.085Z,48.13
2018-08-20T07:16:19.908Z,45.30
2018-08-20T07:18:48.648Z,42.89
2018-08-20T07:21:17.457Z,41.75
2018-08-20T07:23:46.512Z,47.76
2018-08-20T07:26:15.339Z,48.86
2018-08-20T07:28:44.110Z,48.39
2018-08-20T07:31:12.918Z,46.78
2018-08-20T07:33:41.722Z,44.01
2018-08-20T07:36:10.560Z,47.97
2018-08-20T07:38:39.349Z,47.14
2018-08-20T07:41:08.292Z,46.81
2018-08-20T07:43:37.109Z,46.35
2018-08-20T07:46:05.936Z,44.82
2018-08-20T07:48:34.706Z,44.22
2018-08-20T07:51:04.332Z,45.53
2018-08-20T07:53:33.141Z,45.48
2018-08-20T07:56:01.954Z,44.13
2018-08-20T07:58:30.746Z,45.77
2018-08-20T08:00:59.537Z,46.43
2018-08-20T08:03:31.619Z,44.67
2018-08-20T08:06:02.770Z,45.71
2018-08-20T08:08:31.740Z,47.47
2018-08-20T08:11:00.600Z,46.47
2018-08-20T08:13:29.373Z,48.14
2018-08-20T08:15:58.148Z,47.00
2018-08-20T08:18:26.982Z,47.20
2018-08-20T08:20:55.971Z,46.14
2018-08-20T08:23:24.806Z,48.03
2018-08-20T08:25:53.600Z,47.49
2018-08-20T08:28:22.388Z,49.21
2018-08-20T08:30:51.141Z,48.36
2018-08-20T08:33:19.889Z,46.53
2018-08-20T08:35:48.704Z,45.54
2018-08-20T08:38:17.494Z,47.06
2018-08-20T08:40:46.313Z,48.89
2018-08-20T08:43:15.100Z,48.86
2018-08-20T08:45:43.869Z,47.50
2018-08-20T08:48:12.645Z,48.51
2018-08-20T08:50:41.388Z,48.38
2018-08-20T08:53:10.244Z,48.98
2018-08-20T08:55:39.013Z,47.53
2018-08-20T08:58:07.786Z,48.01
2018-08-20T09:00:36.680Z,46.01
2018-08-20T09:03:05.413Z,46.53
2018-08-20T09:05:34.228Z,48.02
2018-08-20T09:08:03.013Z,45.94
2018-08-20T09:10:31.774Z,46.37
2018-08-20T09:13:00.518Z,47.82
2018-08-20T09:15:29.306Z,46.79
2018-08-20T09:17:58.040Z,46.22
2018-08-20T09:20:26.828Z,47.27
2018-08-20T09:22:55.631Z,47.78
2018-08-20T09:25:24.404Z,47.67
2018-08-20T09:27:53.188Z,45.29
2018-08-20T09:30:23.503Z,44.53
2018-08-20T09:32:52.321Z,44.02
2018-08-20T09:35:21.136Z,45.31
2018-08-20T09:37:49.969Z,46.21
2018-08-20T09:40:18.720Z,46.01
2018-08-20T09:42:47.512Z,43.86
2018-08-20T09:45:16.321Z,44.03
2018-08-20T09:47:45.075Z,42.59
2018-08-20T09:50:15.645Z,44.08
2018-08-20T09:52:44.834Z,43.00
2018-08-20T09:55:13.711Z,42.79
2018-08-20T09:57:42.501Z,43.10
2018-08-20T10:00:17.210Z,43.94
2018-08-20T10:02:45.962Z,43.14
2018-08-20T10:05:14.713Z,43.06
2018-08-20T10:07:43.732Z,43.86
2018-08-20T10:10:13.114Z,42.35
2018-08-20T10:12:42.022Z,40.94
2018-08-20T10:15:10.904Z,42.97
2018-08-20T10:17:39.746Z,43.33
2018-08-20T10:20:10.647Z,42.38
2018-08-20T10:22:39.626Z,43.31
2018-08-20T10:25:08.644Z,43.09
2018-08-20T10:27:38.441Z,41.98
2018-08-20T10:30:08.768Z,40.56
2018-08-20T10:32:37.528Z,41.83
2018-08-20T10:35:06.622Z,41.93
2018-08-20T10:37:35.450Z,41.70
2018-08-20T10:40:04.277Z,40.65
2018-08-20T10:42:33.104Z,41.78
2018-08-20T10:45:07.172Z,41.62
2018-08-20T10:47:35.945Z,41.32
2018-08-20T10:50:04.773Z,41.42
2018-08-20T10:52:33.546Z,41.76
2018-08-20T10:55:02.288Z,40.91
2018-08-20T10:57:31.104Z,40.63
2018-08-20T10:59:59.917Z,40.85
2018-08-20T11:02:28.693Z,40.58
2018-08-20T11:04:57.447Z,40.69
2018-08-20T11:07:26.225Z,39.71
2018-08-20T11:09:55.090Z,40.33
2018-08-20T11:12:23.868Z,39.36
2018-08-20T11:14:52.629Z,40.52
2018-08-20T11:17:21.427Z,40.10
2018-08-20T11:19:50.153Z,38.50
2018-08-20T11:22:18.917Z,40.84
2018-08-20T11:24:47.678Z,36.42
2018-08-20T11:27:16.443Z,39.00
2018-08-20T11:29:45.186Z,39.69
2018-08-20T11:32:13.932Z,41.22
2018-08-20T11:34:42.713Z,41.63
2018-08-20T11:37:11.535Z,39.90
2018-08-20T11:39:40.567Z,38.89
2018-08-20T11:42:09.559Z,39.74
2018-08-20T11:44:38.322Z,40.04
2018-08-20T11:47:07.099Z,38.81
2018-08-20T11:49:35.869Z,38.19
2018-08-20T11:52:04.676Z,39.48
2018-08-20T11:54:33.453Z,38.66
2018-08-20T11:57:02.342Z,38.60
2018-08-20T11:59:31.137Z,38.14
2018-08-20T12:02:06.350Z,39.74
2018-08-20T12:04:35.130Z,38.24
2018-08-20T12:07:03.946Z,37.68
2018-08-20T12:09:32.713Z,37.83
2018-08-20T12:12:01.561Z,38.11
2018-08-20T12:14:30.420Z,38.20
2018-08-20T12:16:59.210Z,38.60
2018-08-20T12:19:27.960Z,37.51
2018-08-20T12:21:56.754Z,37.87
2018-08-20T12:24:25.526Z,37.45
2018-08-20T12:26:54.353Z,37.39
2018-08-20T12:29:23.182Z,36.78
2018-08-20T12:31:51.937Z,36.54
2018-08-20T12:34:20.746Z,37.81
2018-08-20T12:36:49.553Z,38.96
2018-08-20T12:39:18.316Z,39.23
2018-08-20T12:41:47.047Z,38.15
2018-08-20T12:44:15.832Z,36.61
2018-08-20T12:46:44.580Z,39.43
2018-08-20T12:49:13.333Z,36.50
2018-08-20T12:51:42.108Z,36.71
2018-08-20T12:54:10.973Z,37.25
2018-08-20T12:56:39.790Z,37.15
2018-08-20T12:59:08.612Z,35.94
2018-08-20T13:01:37.544Z,37.48
2018-08-20T13:04:06.330Z,37.25
2018-08-20T13:06:35.149Z,34.55
2018-08-20T13:09:05.078Z,36.87
2018-08-20T13:11:33.804Z,35.51
2018-08-20T13:14:02.589Z,35.51
2018-08-20T13:16:31.389Z,35.92
2018-08-20T13:19:00.200Z,35.27
2018-08-20T13:21:29.001Z,35.08
2018-08-20T13:23:57.747Z,35.32
2018-08-20T13:26:26.528Z,36.74
2018-08-20T13:28:55.277Z,35.52
2018-08-20T13:31:24.028Z,36.19
2018-08-20T13:33:53.075Z,36.17
2018-08-20T13:36:21.835Z,35.34
2018-08-20T13:38:50.747Z,33.79
2018-08-20T13:41:19.516Z,34.27
2018-08-20T13:43:48.285Z,34.19
2018-08-20T13:46:17.095Z,33.57
2018-08-20T13:48:45.885Z,33.50
2018-08-20T13:51:14.677Z,33.17
2018-08-20T13:53:43.444Z,36.13
2018-08-20T13:56:12.292Z,34.66
2018-08-20T13:58:41.036Z,34.65
2018-08-20T14:01:09.812Z,34.18
2018-08-20T14:03:38.576Z,34.14
2018-08-20T14:06:07.633Z,34.81
2018-08-20T14:08:36.389Z,35.54
2018-08-20T14:11:05.152Z,35.08
2018-08-20T14:13:33.948Z,34.94
2018-08-20T14:16:02.735Z,35.03
2018-08-20T14:18:31.469Z,34.77
2018-08-20T14:21:06.390Z,34.36
2018-08-20T14:23:35.485Z,34.82
2018-08-20T14:26:04.341Z,35.36
2018-08-20T14:28:33.124Z,34.61
2018-08-20T14:31:01.913Z,34.84
2018-08-20T14:33:30.739Z,34.94
2018-08-20T14:35:59.538Z,34.93
2018-08-20T14:38:28.321Z,33.41
2018-08-20T14:40:57.092Z,33.45
2018-08-20T14:43:25.902Z,33.07
2018-08-20T14:45:59.964Z,33.49
2018-08-20T14:48:28.806Z,33.90
2018-08-20T14:50:57.569Z,33.25
2018-08-20T14:53:26.529Z,33.28
2018-08-20T14:55:55.688Z,33.02
2018-08-20T14:58:24.581Z,32.97
2018-08-20T15:00:53.342Z,33.30
2018-08-20T15:03:22.169Z,34.90
2018-08-20T15:05:50.938Z,32.79
2018-08-20T15:08:19.711Z,32.76
2018-08-20T15:10:48.554Z,32.80
2018-08-20T15:13:17.308Z,32.97
2018-08-20T15:15:46.271Z,34.25
2018-08-20T15:18:14.888Z,36.20
2018-08-20T15:20:43.646Z,36.06
2018-08-20T15:23:12.509Z,34.35
2018-08-20T15:25:41.250Z,34.33
2018-08-20T15:28:10.036Z,35.27
2018-08-20T15:30:38.800Z,35.74
2018-08-20T15:33:07.670Z,35.91
2018-08-20T15:35:36.485Z,35.79
2018-08-20T15:38:05.261Z,34.71
2018-08-20T15:40:34.010Z,35.94
2018-08-20T15:43:02.748Z,34.71
2018-08-20T15:45:31.539Z,34.35
2018-08-20T15:48:00.321Z,35.36
2018-08-20T15:50:29.076Z,36.25
2018-08-20T15:52:57.886Z,37.64
2018-08-20T15:55:26.660Z,36.83
2018-08-20T15:57:55.400Z,36.36
2018-08-20T16:00:24.212Z,37.85
2018-08-20T16:02:52.940Z,37.47
2018-08-20T16:05:21.724Z,36.97
2018-08-20T16:07:50.575Z,36.78
2018-08-20T16:10:19.350Z,36.99
2018-08-20T16:12:48.109Z,35.31
2018-08-20T16:15:16.885Z,37.02
2018-08-20T16:17:45.642Z,37.56
2018-08-20T16:20:14.409Z,37.25
2018-08-20T16:22:43.518Z,37.19
2018-08-20T16:25:12.285Z,36.77
2018-08-20T16:27:41.040Z,38.12
2018-08-20T16:30:12.180Z,37.28
2018-08-20T16:32:43.809Z,38.11
2018-08-20T16:35:13.440Z,37.72
2018-08-20T16:37:43.376Z,39.16
2018-08-20T16:40:12.449Z,38.44
2018-08-20T16:42:41.206Z,38.67
2018-08-20T16:45:10.774Z,39.18
2018-08-20T16:47:39.945Z,38.63
2018-08-20T16:50:10.817Z,39.55
2018-08-20T16:52:39.851Z,39.11
2018-08-20T16:55:09.387Z,38.23
2018-08-20T16:57:38.516Z,38.42
2018-08-20T17:00:09.333Z,38.88
2018-08-20T17:02:40.557Z,39.85
2018-08-20T17:05:10.798Z,39.66
2018-08-20T17:07:39.955Z,40.53
2018-08-20T17:10:11.238Z,40.00
2018-08-20T17:12:40.587Z,39.65
2018-08-20T17:15:12.706Z,39.61
2018-08-20T17:17:41.691Z,41.02
2018-08-20T17:20:12.407Z,42.41
2018-08-20T17:22:42.552Z,42.54
2018-08-20T17:25:11.370Z,41.96
2018-08-20T17:27:40.440Z,42.15
2018-08-20T17:30:10.340Z,41.64
2018-08-20T17:32:45.338Z,42.83
2018-08-20T17:35:14.237Z,42.64
2018-08-20T17:37:43.434Z,43.91
2018-08-20T17:40:12.394Z,43.78
2018-08-20T17:42:41.416Z,44.41
2018-08-20T17:45:10.442Z,43.66
2018-08-20T17:47:40.265Z,44.10
2018-08-20T17:50:24.619Z,45.98
2018-08-20T17:52:53.531Z,46.21
2018-08-20T17:55:22.364Z,45.46
2018-08-20T17:57:51.143Z,45.67
2018-08-20T18:00:30.066Z,45.79
2018-08-20T18:02:59.048Z,45.75
2018-08-20T18:05:27.848Z,46.58
2018-08-20T18:07:57.008Z,46.81
2018-08-20T18:10:26.229Z,47.16
2018-08-20T18:12:55.219Z,47.99
2018-08-20T18:15:24.483Z,47.50
2018-08-20T18:17:53.288Z,47.99
2018-08-20T18:20:22.097Z,48.40
2018-08-20T18:22:51.163Z,48.11
2018-08-20T18:25:20.416Z,49.30
2018-08-20T18:27:49.627Z,49.18
2018-08-20T18:30:18.515Z,49.25
2018-08-20T18:32:47.727Z,50.27
2018-08-20T18:35:35.583Z,50.30
2018-08-20T18:38:04.574Z,50.24
2018-08-20T18:40:33.592Z,50.69
2018-08-20T18:43:02.712Z,50.99
2018-08-20T18:45:31.487Z,51.61
2018-08-20T18:48:00.645Z,50.86
2018-08-20T18:50:29.452Z,51.22
2018-08-20T18:52:58.269Z,51.92
2018-08-20T18:55:27.121Z,51.56
2018-08-20T18:57:55.937Z,50.09
2018-08-20T19:00:24.813Z,50.79
2018-08-20T19:02:56.028Z,53.06
2018-08-20T19:05:24.866Z,52.63
2018-08-20T19:07:53.688Z,53.09
2018-08-20T19:10:31.336Z,53.96
2018-08-20T19:13:00.314Z,54.55
2018-08-20T19:15:37.981Z,53.12
2018-08-20T19:18:08.474Z,52.28
2018-08-20T19:20:39.848Z,53.29
2018-08-20T19:23:08.852Z,54.21
2018-08-20T19:25:38.376Z,53.76
2018-08-20T19:28:13.529Z,53.91
2018-08-20T19:30:43.587Z,54.21
2018-08-20T19:33:18.059Z,55.81
2018-08-20T19:35:46.861Z,56.61
2018-08-20T19:38:16.005Z,57.88
2018-08-20T19:40:45.035Z,57.64
2018-08-20T19:43:13.968Z,58.04
2018-08-20T19:45:43.728Z,57.77
2018-08-20T19:48:13.490Z,57.97
2018-08-20T19:50:42.302Z,58.52
2018-08-20T19:53:28.568Z,57.70
2018-08-20T19:55:57.926Z,58.97
2018-08-20T19:58:35.153Z,59.66
2018-08-20T20:01:14.040Z,57.16
2018-08-20T20:03:45.296Z,57.37
2018-08-20T20:06:14.964Z,57.03
2018-08-20T20:08:43.776Z,57.26
2018-08-20T20:11:19.886Z,58.82
2018-08-20T20:13:52.691Z,59.62
2018-08-20T20:16:21.658Z,59.38
2018-08-20T20:18:51.545Z,60.07
2018-08-20T20:21:22.145Z,60.86
2018-08-20T20:23:51.833Z,60.58
2018-08-20T20:26:21.524Z,58.81
2018-08-20T20:28:50.419Z,57.55
2018-08-20T20:31:19.271Z,58.45
2018-08-20T20:33:48.145Z,59.29
2018-08-20T20:36:21.306Z,59.61
2018-08-20T20:38:53.233Z,60.74
2018-08-20T20:41:22.886Z,60.48
2018-08-20T20:43:51.901Z,60.80
2018-08-20T20:46:20.792Z,59.62
2018-08-20T20:48:49.624Z,60.00
2018-08-20T20:51:18.904Z,60.88
2018-08-20T20:53:48.069Z,61.69
2018-08-20T20:56:17.215Z,61.60
2018-08-20T20:58:46.057Z,61.91
2018-08-20T21:01:15.360Z,62.31
2018-08-20T21:03:44.253Z,62.14
2018-08-20T21:06:13.085Z,61.88
2018-08-20T21:08:48.244Z,62.57
2018-08-20T21:11:18.108Z,63.48
2018-08-20T21:13:47.101Z,63.20
2018-08-20T21:16:26.792Z,63.19
2018-08-20T21:18:58.925Z,62.80
2018-08-20T21:21:29.255Z,63.59
2018-08-20T21:23:58.194Z,63.26
2018-08-20T21:26:27.072Z,63.82
2018-08-20T21:28:56.399Z,63.31
2018-08-20T21:31:26.453Z,63.23
2018-08-20T21:33:57.852Z,64.41
2018-08-20T21:36:26.652Z,64.58
2018-08-20T21:38:55.437Z,64.28
2018-08-20T21:41:27.964Z,65.51
2018-08-20T21:43:57.470Z,64.71
2018-08-20T21:46:26.513Z,64.78
2018-08-20T21:48:55.541Z,64.35
2018-08-20T21:51:34.531Z,64.61
2018-08-20T21:54:03.400Z,64.83
2018-08-20T21:56:43.258Z,64.83
2018-08-20T21:59:12.198Z,64.58
2018-08-20T22:01:41.294Z,65.36
2018-08-20T22:04:15.652Z,66.50
2018-08-20T22:06:44.775Z,66.62
2018-08-20T22:09:13.796Z,65.96
2018-08-20T22:11:42.625Z,66.91
2018-08-20T22:14:12.467Z,66.07
2018-08-20T22:16:41.254Z,65.90
2018-08-20T22:19:10.144Z,66.50
2018-08-20T22:21:38.945Z,66.55
2018-08-20T22:24:09.123Z,66.55
2018-08-20T22:26:45.435Z,68.74
2018-08-20T22:29:14.559Z,68.44
2018-08-20T22:31:48.467Z,68.01
2018-08-20T22:34:17.279Z,66.67
2018-08-20T22:36:47.037Z,68.23
2018-08-20T22:39:15.784Z,67.38
2018-08-20T22:41:44.862Z,69.54
2018-08-20T22:44:13.616Z,68.52
2018-08-20T22:46:42.588Z,68.70
2018-08-20T22:49:11.328Z,69.49
2018-08-20T22:51:40.142Z,69.69
2018-08-20T22:54:08.956Z,68.46
2018-08-20T22:56:44.145Z,67.97
2018-08-20T22:59:13.251Z,68.03
2018-08-20T23:01:43.041Z,67.62
2018-08-20T23:04:11.800Z,67.14
2018-08-20T23:06:40.595Z,67.93
2018-08-20T23:09:26.408Z,68.03
2018-08-20T23:11:55.387Z,68.41
2018-08-20T23:14:24.324Z,69.76
2018-08-20T23:16:53.412Z,68.48
2018-08-20T23:19:22.229Z,67.31
2018-08-20T23:21:53.671Z,67.45
2018-08-20T23:24:22.425Z,67.50
2018-08-20T23:26:51.343Z,67.49
2018-08-20T23:29:20.170Z,67.98
2018-08-20T23:31:48.940Z,67.61
2018-08-20T23:34:17.705Z,66.94
2018-08-20T23:36:46.465Z,67.12
2018-08-20T23:39:17.622Z,67.05
2018-08-20T23:41:46.557Z,67.58
2018-08-20T23:44:16.277Z,67.43
2018-08-20T23:46:48.761Z,67.26
2018-08-20T23:49:17.648Z,68.15
2018-08-20T23:51:46.548Z,67.59
2018-08-20T23:54:15.354Z,67.41
2018-08-20T23:56:44.144Z,67.75
2018-08-20T23:59:13.217Z,68.16
